sensor_id;sensor_type;location;lat;lon;timestamp;P1;durP1;ratioP1;P2;durP2;ratioP2
37241;SDS011;23135;51.078;12.108;2022-12-18T00:00:41;25.65;;;9.18;;
37241;SDS011;23135;51.078;12.108;2022-12-18T00:03:07;22.73;;;9.35;;
37241;SDS011;23135;51.078;12.108;2022-12-18T00:05:33;27.42;;;10.45;;
37241;SDS011;23135;51.078;12.108;2022-12-18T00:07:58;23.25;;;8.90;;
37241;SDS011;23135;51.078;12.108;2022-12-18T00:10:24;32.58;;;10.38;;
37241;SDS011;23135;51.078;12.108;2022-12-18T00:12:50;22.60;;;9.77;;
37241;SDS011;23135;51.078;12.108;2022-12-18T00:15:15;31.60;;;10.07;;
37241;SDS011;23135;51.078;12.108;2022-12-18T00:17:41;25.70;;;10.60;;
37241;SDS011;23135;51.078;12.108;2022-12-18T00:20:07;27.90;;;9.93;;
37241;SDS011;23135;51.078;12.108;2022-12-18T00:22:33;27.20;;;10.15;;
37241;SDS011;23135;51.078;12.108;2022-12-18T00:24:58;21.15;;;8.73;;
37241;SDS011;23135;51.078;12.108;2022-12-18T00:27:24;27.05;;;8.50;;
37241;SDS011;23135;51.078;12.108;2022-12-18T00:29:50;27.23;;;8.77;;
37241;SDS011;23135;51.078;12.108;2022-12-18T00:32:16;23.90;;;9.38;;
37241;SDS011;23135;51.078;12.108;2022-12-18T00:34:41;25.80;;;8.48;;
37241;SDS011;23135;51.078;12.108;2022-12-18T00:37:07;24.63;;;8.88;;
37241;SDS011;23135;51.078;12.108;2022-12-18T00:39:32;28.08;;;10.70;;
37241;SDS011;23135;51.078;12.108;2022-12-18T00:41:58;36.33;;;11.45;;
37241;SDS011;23135;51.078;12.108;2022-12-18T00:44:42;34.67;;;10.32;;
37241;SDS011;23135;51.078;12.108;2022-12-18T00:47:08;31.80;;;9.40;;
37241;SDS011;23135;51.078;12.108;2022-12-18T00:49:33;30.58;;;10.25;;
37241;SDS011;23135;51.078;12.108;2022-12-18T00:51:59;22.90;;;9.07;;
37241;SDS011;23135;51.078;12.108;2022-12-18T00:54:25;28.52;;;10.20;;
37241;SDS011;23135;51.078;12.108;2022-12-18T00:56:51;26.77;;;9.13;;
37241;SDS011;23135;51.078;12.108;2022-12-18T00:59:17;24.17;;;9.07;;
37241;SDS011;23135;51.078;12.108;2022-12-18T01:01:43;23.65;;;8.77;;
37241;SDS011;23135;51.078;12.108;2022-12-18T01:04:09;30.85;;;9.98;;
37241;SDS011;23135;51.078;12.108;2022-12-18T01:06:35;22.67;;;8.40;;
37241;SDS011;23135;51.078;12.108;2022-12-18T01:09:01;25.45;;;8.52;;
37241;SDS011;23135;51.078;12.108;2022-12-18T01:11:27;22.35;;;8.30;;
37241;SDS011;23135;51.078;12.108;2022-12-18T01:13:53;27.98;;;8.60;;
37241;SDS011;23135;51.078;12.108;2022-12-18T01:16:19;19.52;;;7.85;;
37241;SDS011;23135;51.078;12.108;2022-12-18T01:18:46;26.60;;;10.20;;
37241;SDS011;23135;51.078;12.108;2022-12-18T01:21:16;22.83;;;8.23;;
37241;SDS011;23135;51.078;12.108;2022-12-18T01:23:42;33.28;;;10.23;;
37241;SDS011;23135;51.078;12.108;2022-12-18T01:26:08;29.95;;;9.90;;
37241;SDS011;23135;51.078;12.108;2022-12-18T01:28:36;30.92;;;9.68;;
37241;SDS011;23135;51.078;12.108;2022-12-18T01:31:36;16.27;;;7.20;;
37241;SDS011;23135;51.078;12.108;2022-12-18T01:33:57;27.13;;;8.27;;
37241;SDS011;23135;51.078;12.108;2022-12-18T01:36:26;22.08;;;6.78;;
37241;SDS011;23135;51.078;12.108;2022-12-18T01:38:56;17.02;;;6.18;;
37241;SDS011;23135;51.078;12.108;2022-12-18T01:41:25;19.70;;;6.90;;
37241;SDS011;23135;51.078;12.108;2022-12-18T01:49:49;16.88;;;7.10;;
37241;SDS011;23135;51.078;12.108;2022-12-18T01:52:15;16.40;;;5.47;;
37241;SDS011;23135;51.078;12.108;2022-12-18T01:54:41;17.67;;;7.40;;
37241;SDS011;23135;51.078;12.108;2022-12-18T01:57:08;25.05;;;8.20;;
37241;SDS011;23135;51.078;12.108;2022-12-18T01:59:34;24.95;;;7.78;;
37241;SDS011;23135;51.078;12.108;2022-12-18T02:02:00;21.15;;;7.70;;
37241;SDS011;23135;51.078;12.108;2022-12-18T02:04:27;28.63;;;7.45;;
37241;SDS011;23135;51.078;12.108;2022-12-18T02:06:59;20.65;;;7.43;;
37241;SDS011;23135;51.078;12.108;2022-12-18T02:09:35;24.95;;;10.25;;
37241;SDS011;23135;51.078;12.108;2022-12-18T02:12:19;15.32;;;7.20;;
37241;SDS011;23135;51.078;12.108;2022-12-18T02:17:37;23.13;;;7.38;;
37241;SDS011;23135;51.078;12.108;2022-12-18T02:28:36;19.08;;;5.38;;
37241;SDS011;23135;51.078;12.108;2022-12-18T02:31:07;21.02;;;8.02;;
37241;SDS011;23135;51.078;12.108;2022-12-18T02:33:36;27.27;;;9.30;;
37241;SDS011;23135;51.078;12.108;2022-12-18T02:36:03;21.90;;;6.80;;
37241;SDS011;23135;51.078;12.108;2022-12-18T02:38:30;19.85;;;8.02;;
37241;SDS011;23135;51.078;12.108;2022-12-18T02:40:57;22.48;;;8.68;;
37241;SDS011;23135;51.078;12.108;2022-12-18T02:43:23;19.20;;;7.88;;
37241;SDS011;23135;51.078;12.108;2022-12-18T02:45:50;30.75;;;9.27;;
37241;SDS011;23135;51.078;12.108;2022-12-18T02:48:33;19.42;;;7.80;;
37241;SDS011;23135;51.078;12.108;2022-12-18T02:51:08;19.05;;;7.85;;
37241;SDS011;23135;51.078;12.108;2022-12-18T02:53:45;26.25;;;8.25;;
37241;SDS011;23135;51.078;12.108;2022-12-18T02:56:33;23.77;;;6.57;;
37241;SDS011;23135;51.078;12.108;2022-12-18T03:04:05;15.00;;;6.18;;
37241;SDS011;23135;51.078;12.108;2022-12-18T03:06:55;21.77;;;6.35;;
37241;SDS011;23135;51.078;12.108;2022-12-18T03:09:28;27.25;;;7.03;;
37241;SDS011;23135;51.078;12.108;2022-12-18T03:12:35;14.73;;;5.28;;
37241;SDS011;23135;51.078;12.108;2022-12-18T03:15:04;21.20;;;7.00;;
37241;SDS011;23135;51.078;12.108;2022-12-18T03:17:51;17.40;;;6.10;;
37241;SDS011;23135;51.078;12.108;2022-12-18T03:20:21;18.70;;;5.63;;
37241;SDS011;23135;51.078;12.108;2022-12-18T03:22:51;18.50;;;5.82;;
37241;SDS011;23135;51.078;12.108;2022-12-18T03:25:20;17.45;;;6.65;;
37241;SDS011;23135;51.078;12.108;2022-12-18T03:27:48;14.30;;;6.35;;
37241;SDS011;23135;51.078;12.108;2022-12-18T03:30:16;15.25;;;6.43;;
37241;SDS011;23135;51.078;12.108;2022-12-18T03:32:44;6.72;;;2.42;;
37241;SDS011;23135;51.078;12.108;2022-12-18T03:35:12;18.52;;;6.13;;
37241;SDS011;23135;51.078;12.108;2022-12-18T03:37:46;14.02;;;4.63;;
37241;SDS011;23135;51.078;12.108;2022-12-18T03:40:12;16.40;;;5.38;;
37241;SDS011;23135;51.078;12.108;2022-12-18T03:42:56;20.60;;;4.57;;
37241;SDS011;23135;51.078;12.108;2022-12-18T03:45:34;6.18;;;3.13;;
37241;SDS011;23135;51.078;12.108;2022-12-18T03:48:07;22.55;;;6.45;;
37241;SDS011;23135;51.078;12.108;2022-12-18T03:53:39;12.68;;;6.22;;
37241;SDS011;23135;51.078;12.108;2022-12-18T03:56:06;17.25;;;6.30;;
37241;SDS011;23135;51.078;12.108;2022-12-18T03:58:34;17.02;;;6.22;;
37241;SDS011;23135;51.078;12.108;2022-12-18T04:01:02;20.02;;;6.63;;
37241;SDS011;23135;51.078;12.108;2022-12-18T04:03:32;16.42;;;6.55;;
37241;SDS011;23135;51.078;12.108;2022-12-18T04:05:58;11.93;;;4.22;;
37241;SDS011;23135;51.078;12.108;2022-12-18T04:08:26;12.50;;;4.28;;
37241;SDS011;23135;51.078;12.108;2022-12-18T04:10:52;10.10;;;4.38;;
37241;SDS011;23135;51.078;12.108;2022-12-18T04:13:21;14.40;;;6.65;;
37241;SDS011;23135;51.078;12.108;2022-12-18T04:15:48;16.95;;;6.45;;
37241;SDS011;23135;51.078;12.108;2022-12-18T04:18:14;11.77;;;5.40;;
37241;SDS011;23135;51.078;12.108;2022-12-18T04:20:40;29.45;;;6.85;;
37241;SDS011;23135;51.078;12.108;2022-12-18T04:23:05;20.85;;;6.18;;
37241;SDS011;23135;51.078;12.108;2022-12-18T04:25:31;23.88;;;6.85;;
37241;SDS011;23135;51.078;12.108;2022-12-18T04:27:56;20.88;;;4.97;;
37241;SDS011;23135;51.078;12.108;2022-12-18T04:30:22;16.95;;;7.10;;
37241;SDS011;23135;51.078;12.108;2022-12-18T04:32:47;13.48;;;3.15;;
37241;SDS011;23135;51.078;12.108;2022-12-18T04:35:13;9.35;;;4.07;;
37241;SDS011;23135;51.078;12.108;2022-12-18T04:37:39;17.08;;;5.53;;
37241;SDS011;23135;51.078;12.108;2022-12-18T04:40:04;11.57;;;4.93;;
37241;SDS011;23135;51.078;12.108;2022-12-18T04:42:30;19.67;;;5.55;;
37241;SDS011;23135;51.078;12.108;2022-12-18T04:44:56;16.40;;;6.90;;
37241;SDS011;23135;51.078;12.108;2022-12-18T04:47:21;12.13;;;4.93;;
37241;SDS011;23135;51.078;12.108;2022-12-18T04:49:47;12.48;;;4.93;;
37241;SDS011;23135;51.078;12.108;2022-12-18T04:52:13;14.77;;;5.70;;
37241;SDS011;23135;51.078;12.108;2022-12-18T04:54:38;12.02;;;4.35;;
37241;SDS011;23135;51.078;12.108;2022-12-18T04:57:04;13.60;;;4.20;;
37241;SDS011;23135;51.078;12.108;2022-12-18T04:59:29;17.03;;;5.73;;
37241;SDS011;23135;51.078;12.108;2022-12-18T05:01:55;14.10;;;4.05;;
37241;SDS011;23135;51.078;12.108;2022-12-18T05:04:21;17.85;;;5.72;;
37241;SDS011;23135;51.078;12.108;2022-12-18T05:06:46;16.05;;;4.80;;
37241;SDS011;23135;51.078;12.108;2022-12-18T05:09:12;11.95;;;4.75;;
37241;SDS011;23135;51.078;12.108;2022-12-18T05:11:37;14.55;;;5.50;;
37241;SDS011;23135;51.078;12.108;2022-12-18T05:14:03;10.60;;;4.28;;
37241;SDS011;23135;51.078;12.108;2022-12-18T05:16:29;13.05;;;5.30;;
37241;SDS011;23135;51.078;12.108;2022-12-18T05:18:54;23.08;;;5.07;;
37241;SDS011;23135;51.078;12.108;2022-12-18T05:21:20;10.43;;;4.18;;
37241;SDS011;23135;51.078;12.108;2022-12-18T05:23:45;13.77;;;3.75;;
37241;SDS011;23135;51.078;12.108;2022-12-18T05:26:14;11.77;;;4.38;;
37241;SDS011;23135;51.078;12.108;2022-12-18T05:28:42;10.60;;;5.30;;
37241;SDS011;23135;51.078;12.108;2022-12-18T05:31:08;10.88;;;3.90;;
37241;SDS011;23135;51.078;12.108;2022-12-18T05:33:34;16.90;;;4.65;;
37241;SDS011;23135;51.078;12.108;2022-12-18T05:36:01;15.40;;;4.22;;
37241;SDS011;23135;51.078;12.108;2022-12-18T05:38:28;12.25;;;3.53;;
37241;SDS011;23135;51.078;12.108;2022-12-18T05:40:54;9.85;;;4.93;;
37241;SDS011;23135;51.078;12.108;2022-12-18T05:43:21;11.93;;;3.38;;
37241;SDS011;23135;51.078;12.108;2022-12-18T05:45:49;12.45;;;4.47;;
37241;SDS011;23135;51.078;12.108;2022-12-18T05:48:16;16.63;;;4.68;;
37241;SDS011;23135;51.078;12.108;2022-12-18T05:50:42;16.80;;;3.95;;
37241;SDS011;23135;51.078;12.108;2022-12-18T05:53:12;14.88;;;3.90;;
37241;SDS011;23135;51.078;12.108;2022-12-18T05:55:40;12.15;;;2.97;;
37241;SDS011;23135;51.078;12.108;2022-12-18T05:58:07;12.35;;;3.55;;
37241;SDS011;23135;51.078;12.108;2022-12-18T06:00:35;12.90;;;3.38;;
37241;SDS011;23135;51.078;12.108;2022-12-18T06:03:09;8.07;;;2.97;;
37241;SDS011;23135;51.078;12.108;2022-12-18T06:05:36;10.63;;;3.58;;
37241;SDS011;23135;51.078;12.108;2022-12-18T06:08:12;11.63;;;3.33;;
37241;SDS011;23135;51.078;12.108;2022-12-18T06:10:38;10.65;;;2.53;;
37241;SDS011;23135;51.078;12.108;2022-12-18T06:13:05;5.88;;;2.47;;
37241;SDS011;23135;51.078;12.108;2022-12-18T06:15:31;9.82;;;4.60;;
37241;SDS011;23135;51.078;12.108;2022-12-18T06:17:57;16.50;;;3.37;;
37241;SDS011;23135;51.078;12.108;2022-12-18T06:20:23;10.57;;;3.77;;
37241;SDS011;23135;51.078;12.108;2022-12-18T06:22:49;13.32;;;3.63;;
37241;SDS011;23135;51.078;12.108;2022-12-18T06:25:14;16.30;;;4.50;;
37241;SDS011;23135;51.078;12.108;2022-12-18T06:27:40;10.77;;;3.55;;
37241;SDS011;23135;51.078;12.108;2022-12-18T06:30:06;13.43;;;3.95;;
37241;SDS011;23135;51.078;12.108;2022-12-18T06:32:32;17.23;;;4.93;;
37241;SDS011;23135;51.078;12.108;2022-12-18T06:34:58;12.05;;;4.45;;
37241;SDS011;23135;51.078;12.108;2022-12-18T06:37:24;5.88;;;1.73;;
37241;SDS011;23135;51.078;12.108;2022-12-18T06:39:51;11.50;;;4.30;;
37241;SDS011;23135;51.078;12.108;2022-12-18T06:42:21;12.52;;;3.40;;
37241;SDS011;23135;51.078;12.108;2022-12-18T06:44:47;8.02;;;2.95;;
37241;SDS011;23135;51.078;12.108;2022-12-18T06:47:13;13.47;;;3.10;;
37241;SDS011;23135;51.078;12.108;2022-12-18T06:49:38;14.73;;;4.20;;
37241;SDS011;23135;51.078;12.108;2022-12-18T06:52:04;9.10;;;3.80;;
37241;SDS011;23135;51.078;12.108;2022-12-18T06:54:29;14.53;;;3.57;;
37241;SDS011;23135;51.078;12.108;2022-12-18T06:56:55;15.13;;;2.93;;
37241;SDS011;23135;51.078;12.108;2022-12-18T06:59:21;12.80;;;3.47;;
37241;SDS011;23135;51.078;12.108;2022-12-18T07:01:46;9.00;;;3.58;;
37241;SDS011;23135;51.078;12.108;2022-12-18T07:04:12;10.65;;;3.05;;
37241;SDS011;23135;51.078;12.108;2022-12-18T07:06:38;9.67;;;2.43;;
37241;SDS011;23135;51.078;12.108;2022-12-18T07:09:03;10.18;;;2.75;;
37241;SDS011;23135;51.078;12.108;2022-12-18T07:11:29;10.20;;;3.92;;
37241;SDS011;23135;51.078;12.108;2022-12-18T07:13:57;20.45;;;3.35;;
37241;SDS011;23135;51.078;12.108;2022-12-18T07:16:22;12.18;;;3.08;;
37241;SDS011;23135;51.078;12.108;2022-12-18T07:18:48;11.57;;;3.42;;
37241;SDS011;23135;51.078;12.108;2022-12-18T07:21:14;8.18;;;3.78;;
37241;SDS011;23135;51.078;12.108;2022-12-18T07:23:42;8.15;;;2.47;;
37241;SDS011;23135;51.078;12.108;2022-12-18T07:26:09;17.08;;;3.90;;
37241;SDS011;23135;51.078;12.108;2022-12-18T07:28:36;9.57;;;3.60;;
37241;SDS011;23135;51.078;12.108;2022-12-18T07:31:03;5.13;;;1.17;;
37241;SDS011;23135;51.078;12.108;2022-12-18T07:33:34;16.95;;;4.28;;
37241;SDS011;23135;51.078;12.108;2022-12-18T07:36:00;14.82;;;2.50;;
37241;SDS011;23135;51.078;12.108;2022-12-18T07:38:26;7.82;;;3.33;;
37241;SDS011;23135;51.078;12.108;2022-12-18T07:40:52;11.25;;;2.45;;
37241;SDS011;23135;51.078;12.108;2022-12-18T07:43:17;15.73;;;3.43;;
37241;SDS011;23135;51.078;12.108;2022-12-18T07:45:43;6.23;;;2.37;;
37241;SDS011;23135;51.078;12.108;2022-12-18T07:48:08;13.07;;;3.20;;
37241;SDS011;23135;51.078;12.108;2022-12-18T07:50:35;9.25;;;3.47;;
37241;SDS011;23135;51.078;12.108;2022-12-18T07:53:00;9.80;;;2.83;;
37241;SDS011;23135;51.078;12.108;2022-12-18T07:55:30;9.43;;;2.67;;
37241;SDS011;23135;51.078;12.108;2022-12-18T07:57:56;5.25;;;2.08;;
37241;SDS011;23135;51.078;12.108;2022-12-18T08:00:22;9.85;;;4.40;;
37241;SDS011;23135;51.078;12.108;2022-12-18T08:02:47;10.80;;;3.10;;
37241;SDS011;23135;51.078;12.108;2022-12-18T08:05:13;18.83;;;5.43;;
37241;SDS011;23135;51.078;12.108;2022-12-18T08:07:39;11.55;;;4.35;;
37241;SDS011;23135;51.078;12.108;2022-12-18T08:10:05;11.55;;;4.57;;
37241;SDS011;23135;51.078;12.108;2022-12-18T08:12:31;12.38;;;4.05;;
37241;SDS011;23135;51.078;12.108;2022-12-18T08:14:57;9.27;;;3.55;;
37241;SDS011;23135;51.078;12.108;2022-12-18T08:17:23;11.95;;;3.35;;
37241;SDS011;23135;51.078;12.108;2022-12-18T08:19:48;20.27;;;4.77;;
37241;SDS011;23135;51.078;12.108;2022-12-18T08:22:14;8.98;;;3.58;;
37241;SDS011;23135;51.078;12.108;2022-12-18T08:24:40;11.13;;;3.20;;
37241;SDS011;23135;51.078;12.108;2022-12-18T08:27:05;11.23;;;2.65;;
37241;SDS011;23135;51.078;12.108;2022-12-18T08:29:31;12.48;;;4.13;;
37241;SDS011;23135;51.078;12.108;2022-12-18T08:31:57;3.33;;;2.55;;
37241;SDS011;23135;51.078;12.108;2022-12-18T08:34:22;12.13;;;4.05;;
37241;SDS011;23135;51.078;12.108;2022-12-18T08:36:48;13.35;;;4.72;;
37241;SDS011;23135;51.078;12.108;2022-12-18T08:39:14;10.98;;;4.15;;
37241;SDS011;23135;51.078;12.108;2022-12-18T08:41:39;10.90;;;4.25;;
37241;SDS011;23135;51.078;12.108;2022-12-18T08:44:06;6.97;;;3.28;;
37241;SDS011;23135;51.078;12.108;2022-12-18T08:46:51;7.93;;;3.90;;
37241;SDS011;23135;51.078;12.108;2022-12-18T08:49:16;9.85;;;4.15;;
37241;SDS011;23135;51.078;12.108;2022-12-18T08:51:42;11.60;;;3.20;;
37241;SDS011;23135;51.078;12.108;2022-12-18T08:54:09;10.25;;;3.20;;
37241;SDS011;23135;51.078;12.108;2022-12-18T08:56:36;10.25;;;2.40;;
37241;SDS011;23135;51.078;12.108;2022-12-18T08:59:02;10.90;;;3.85;;
37241;SDS011;23135;51.078;12.108;2022-12-18T09:01:29;13.95;;;4.53;;
37241;SDS011;23135;51.078;12.108;2022-12-18T09:03:55;13.30;;;3.65;;
37241;SDS011;23135;51.078;12.108;2022-12-18T09:06:21;8.30;;;4.22;;
37241;SDS011;23135;51.078;12.108;2022-12-18T09:08:47;14.25;;;4.70;;
37241;SDS011;23135;51.078;12.108;2022-12-18T09:11:24;10.45;;;3.40;;
37241;SDS011;23135;51.078;12.108;2022-12-18T09:13:51;19.65;;;5.07;;
37241;SDS011;23135;51.078;12.108;2022-12-18T09:16:18;10.82;;;4.53;;
37241;SDS011;23135;51.078;12.108;2022-12-18T09:18:44;10.60;;;4.45;;
37241;SDS011;23135;51.078;12.108;2022-12-18T09:21:14;9.90;;;3.00;;
37241;SDS011;23135;51.078;12.108;2022-12-18T09:23:42;8.75;;;3.08;;
37241;SDS011;23135;51.078;12.108;2022-12-18T09:26:08;12.23;;;4.85;;
37241;SDS011;23135;51.078;12.108;2022-12-18T09:28:34;7.82;;;3.53;;
37241;SDS011;23135;51.078;12.108;2022-12-18T09:31:02;22.80;;;8.43;;
37241;SDS011;23135;51.078;12.108;2022-12-18T09:33:30;137.90;;;62.28;;
37241;SDS011;23135;51.078;12.108;2022-12-18T09:35:55;167.52;;;77.18;;
37241;SDS011;23135;51.078;12.108;2022-12-18T09:38:21;80.13;;;37.75;;
37241;SDS011;23135;51.078;12.108;2022-12-18T09:40:49;27.67;;;12.07;;
37241;SDS011;23135;51.078;12.108;2022-12-18T09:43:32;22.10;;;9.80;;
37241;SDS011;23135;51.078;12.108;2022-12-18T09:46:03;17.58;;;8.90;;
37241;SDS011;23135;51.078;12.108;2022-12-18T09:48:36;32.65;;;21.63;;
37241;SDS011;23135;51.078;12.108;2022-12-18T09:51:12;19.42;;;9.73;;
37241;SDS011;23135;51.078;12.108;2022-12-18T09:53:53;17.08;;;6.15;;
37241;SDS011;23135;51.078;12.108;2022-12-18T09:56:23;16.10;;;5.85;;
37241;SDS011;23135;51.078;12.108;2022-12-18T09:58:58;19.85;;;6.53;;
37241;SDS011;23135;51.078;12.108;2022-12-18T10:01:25;16.95;;;6.55;;
37241;SDS011;23135;51.078;12.108;2022-12-18T10:03:52;17.02;;;5.72;;
37241;SDS011;23135;51.078;12.108;2022-12-18T10:09:20;20.42;;;5.97;;
37241;SDS011;23135;51.078;12.108;2022-12-18T10:20:02;16.80;;;6.13;;
37241;SDS011;23135;51.078;12.108;2022-12-18T10:27:43;14.50;;;6.43;;
37241;SDS011;23135;51.078;12.108;2022-12-18T10:30:17;16.48;;;6.75;;
37241;SDS011;23135;51.078;12.108;2022-12-18T10:32:44;28.23;;;9.43;;
37241;SDS011;23135;51.078;12.108;2022-12-18T10:37:59;15.35;;;7.88;;
37241;SDS011;23135;51.078;12.108;2022-12-18T10:40:31;26.23;;;8.40;;
37241;SDS011;23135;51.078;12.108;2022-12-18T10:43:04;21.02;;;8.93;;
37241;SDS011;23135;51.078;12.108;2022-12-18T10:45:35;17.60;;;7.50;;
37241;SDS011;23135;51.078;12.108;2022-12-18T10:48:01;18.50;;;7.93;;
37241;SDS011;23135;51.078;12.108;2022-12-18T10:50:30;22.85;;;9.63;;
37241;SDS011;23135;51.078;12.108;2022-12-18T10:53:00;22.90;;;9.73;;
37241;SDS011;23135;51.078;12.108;2022-12-18T10:55:31;23.60;;;9.23;;
37241;SDS011;23135;51.078;12.108;2022-12-18T11:03:41;12.93;;;6.47;;
37241;SDS011;23135;51.078;12.108;2022-12-18T11:06:10;18.58;;;6.43;;
37241;SDS011;23135;51.078;12.108;2022-12-18T11:08:46;17.00;;;6.80;;
37241;SDS011;23135;51.078;12.108;2022-12-18T11:11:29;15.02;;;6.30;;
37241;SDS011;23135;51.078;12.108;2022-12-18T11:14:03;12.23;;;7.05;;
37241;SDS011;23135;51.078;12.108;2022-12-18T11:16:43;16.23;;;6.50;;
37241;SDS011;23135;51.078;12.108;2022-12-18T11:19:13;23.63;;;7.55;;
37241;SDS011;23135;51.078;12.108;2022-12-18T11:22:03;17.80;;;6.97;;
37241;SDS011;23135;51.078;12.108;2022-12-18T11:27:22;18.95;;;6.40;;
37241;SDS011;23135;51.078;12.108;2022-12-18T11:29:49;16.27;;;7.47;;
37241;SDS011;23135;51.078;12.108;2022-12-18T11:35:10;14.45;;;6.07;;
37241;SDS011;23135;51.078;12.108;2022-12-18T11:37:46;13.70;;;6.00;;
37241;SDS011;23135;51.078;12.108;2022-12-18T11:40:22;13.45;;;5.72;;
37241;SDS011;23135;51.078;12.108;2022-12-18T11:43:22;16.50;;;6.20;;
37241;SDS011;23135;51.078;12.108;2022-12-18T11:46:05;16.33;;;6.53;;
37241;SDS011;23135;51.078;12.108;2022-12-18T11:48:37;11.65;;;6.20;;
37241;SDS011;23135;51.078;12.108;2022-12-18T11:51:15;19.08;;;7.22;;
37241;SDS011;23135;51.078;12.108;2022-12-18T11:53:57;13.27;;;6.50;;
37241;SDS011;23135;51.078;12.108;2022-12-18T11:56:28;15.10;;;7.70;;
37241;SDS011;23135;51.078;12.108;2022-12-18T12:12:33;17.08;;;7.82;;
37241;SDS011;23135;51.078;12.108;2022-12-18T12:20:49;18.73;;;6.97;;
37241;SDS011;23135;51.078;12.108;2022-12-18T12:26:30;17.75;;;6.53;;
37241;SDS011;23135;51.078;12.108;2022-12-18T12:31:50;10.95;;;5.75;;
37241;SDS011;23135;51.078;12.108;2022-12-18T12:34:26;17.65;;;5.18;;
37241;SDS011;23135;51.078;12.108;2022-12-18T12:37:16;13.85;;;6.35;;
37241;SDS011;23135;51.078;12.108;2022-12-18T12:39:46;9.07;;;4.85;;
37241;SDS011;23135;51.078;12.108;2022-12-18T12:42:35;10.70;;;5.18;;
37241;SDS011;23135;51.078;12.108;2022-12-18T12:46:14;17.40;;;7.03;;
37241;SDS011;23135;51.078;12.108;2022-12-18T12:50:56;12.95;;;5.85;;
37241;SDS011;23135;51.078;12.108;2022-12-18T12:53:26;14.02;;;5.25;;
37241;SDS011;23135;51.078;12.108;2022-12-18T12:55:55;13.48;;;5.65;;
37241;SDS011;23135;51.078;12.108;2022-12-18T13:01:33;13.30;;;5.82;;
37241;SDS011;23135;51.078;12.108;2022-12-18T13:04:19;13.32;;;6.03;;
37241;SDS011;23135;51.078;12.108;2022-12-18T13:07:13;15.70;;;5.75;;
37241;SDS011;23135;51.078;12.108;2022-12-18T13:12:35;10.88;;;5.18;;
37241;SDS011;23135;51.078;12.108;2022-12-18T13:15:20;17.73;;;7.72;;
37241;SDS011;23135;51.078;12.108;2022-12-18T13:18:02;12.80;;;6.32;;
37241;SDS011;23135;51.078;12.108;2022-12-18T13:20:32;14.88;;;6.18;;
37241;SDS011;23135;51.078;12.108;2022-12-18T13:25:50;18.65;;;7.25;;
37241;SDS011;23135;51.078;12.108;2022-12-18T13:28:18;13.23;;;6.88;;
37241;SDS011;23135;51.078;12.108;2022-12-18T13:30:57;11.70;;;6.63;;
37241;SDS011;23135;51.078;12.108;2022-12-18T13:35:51;14.88;;;6.50;;
37241;SDS011;23135;51.078;12.108;2022-12-18T13:38:34;17.55;;;6.72;;
37241;SDS011;23135;51.078;12.108;2022-12-18T13:43:43;12.35;;;5.18;;
37241;SDS011;23135;51.078;12.108;2022-12-18T13:48:50;12.18;;;5.47;;
37241;SDS011;23135;51.078;12.108;2022-12-18T13:51:17;13.93;;;6.70;;
37241;SDS011;23135;51.078;12.108;2022-12-18T13:53:45;11.18;;;6.38;;
37241;SDS011;23135;51.078;12.108;2022-12-18T13:56:24;14.63;;;6.03;;
37241;SDS011;23135;51.078;12.108;2022-12-18T14:01:36;17.02;;;5.60;;
37241;SDS011;23135;51.078;12.108;2022-12-18T14:04:11;15.40;;;6.05;;
37241;SDS011;23135;51.078;12.108;2022-12-18T14:06:45;12.48;;;5.03;;
37241;SDS011;23135;51.078;12.108;2022-12-18T14:09:13;16.95;;;5.28;;
37241;SDS011;23135;51.078;12.108;2022-12-18T14:11:47;12.40;;;5.15;;
37241;SDS011;23135;51.078;12.108;2022-12-18T14:14:16;10.95;;;4.88;;
37241;SDS011;23135;51.078;12.108;2022-12-18T14:16:42;14.73;;;5.70;;
37241;SDS011;23135;51.078;12.108;2022-12-18T14:19:11;13.05;;;5.60;;
37241;SDS011;23135;51.078;12.108;2022-12-18T14:21:49;16.73;;;6.38;;
37241;SDS011;23135;51.078;12.108;2022-12-18T14:24:19;12.75;;;6.00;;
37241;SDS011;23135;51.078;12.108;2022-12-18T14:26:47;18.15;;;7.93;;
37241;SDS011;23135;51.078;12.108;2022-12-18T14:29:18;20.90;;;7.18;;
37241;SDS011;23135;51.078;12.108;2022-12-18T14:31:44;26.27;;;9.93;;
37241;SDS011;23135;51.078;12.108;2022-12-18T14:34:16;20.08;;;8.07;;
37241;SDS011;23135;51.078;12.108;2022-12-18T14:36:42;15.38;;;6.30;;
37241;SDS011;23135;51.078;12.108;2022-12-18T14:39:17;23.65;;;9.88;;
37241;SDS011;23135;51.078;12.108;2022-12-18T14:41:43;42.72;;;17.73;;
37241;SDS011;23135;51.078;12.108;2022-12-18T14:44:10;49.17;;;20.80;;
37241;SDS011;23135;51.078;12.108;2022-12-18T14:46:44;91.00;;;31.95;;
37241;SDS011;23135;51.078;12.108;2022-12-18T14:51:50;61.47;;;22.85;;
37241;SDS011;23135;51.078;12.108;2022-12-18T14:54:19;65.88;;;24.73;;
37241;SDS011;23135;51.078;12.108;2022-12-18T14:56:46;30.35;;;10.77;;
37241;SDS011;23135;51.078;12.108;2022-12-18T14:59:35;14.02;;;6.75;;
37241;SDS011;23135;51.078;12.108;2022-12-18T15:02:08;18.10;;;5.88;;
37241;SDS011;23135;51.078;12.108;2022-12-18T15:04:43;20.45;;;8.07;;
37241;SDS011;23135;51.078;12.108;2022-12-18T15:09:43;21.50;;;9.02;;
37241;SDS011;23135;51.078;12.108;2022-12-18T15:14:58;21.13;;;8.27;;
37241;SDS011;23135;51.078;12.108;2022-12-18T15:17:24;19.77;;;7.55;;
37241;SDS011;23135;51.078;12.108;2022-12-18T15:19:51;17.17;;;7.65;;
37241;SDS011;23135;51.078;12.108;2022-12-18T15:22:25;18.05;;;7.32;;
37241;SDS011;23135;51.078;12.108;2022-12-18T15:24:53;13.85;;;7.40;;
37241;SDS011;23135;51.078;12.108;2022-12-18T15:27:25;15.65;;;6.88;;
37241;SDS011;23135;51.078;12.108;2022-12-18T15:29:59;11.98;;;5.57;;
37241;SDS011;23135;51.078;12.108;2022-12-18T15:32:45;18.42;;;7.07;;
37241;SDS011;23135;51.078;12.108;2022-12-18T15:37:50;15.30;;;6.40;;
37241;SDS011;23135;51.078;12.108;2022-12-18T15:40:18;14.52;;;6.70;;
37241;SDS011;23135;51.078;12.108;2022-12-18T15:42:45;18.27;;;7.78;;
37241;SDS011;23135;51.078;12.108;2022-12-18T15:45:31;25.27;;;7.53;;
37241;SDS011;23135;51.078;12.108;2022-12-18T15:47:56;24.85;;;9.57;;
37241;SDS011;23135;51.078;12.108;2022-12-18T15:50:22;26.38;;;8.23;;
37241;SDS011;23135;51.078;12.108;2022-12-18T15:52:49;17.77;;;7.80;;
37241;SDS011;23135;51.078;12.108;2022-12-18T15:55:22;20.90;;;8.27;;
37241;SDS011;23135;51.078;12.108;2022-12-18T15:58:08;15.65;;;7.63;;
37241;SDS011;23135;51.078;12.108;2022-12-18T16:00:35;19.95;;;7.25;;
37241;SDS011;23135;51.078;12.108;2022-12-18T16:03:03;22.25;;;7.43;;
37241;SDS011;23135;51.078;12.108;2022-12-18T16:05:29;17.70;;;7.25;;
37241;SDS011;23135;51.078;12.108;2022-12-18T16:07:55;21.02;;;8.18;;
37241;SDS011;23135;51.078;12.108;2022-12-18T16:10:21;17.73;;;6.72;;
37241;SDS011;23135;51.078;12.108;2022-12-18T16:12:47;22.42;;;9.13;;
37241;SDS011;23135;51.078;12.108;2022-12-18T16:15:14;35.40;;;13.98;;
37241;SDS011;23135;51.078;12.108;2022-12-18T16:17:41;33.40;;;13.73;;
37241;SDS011;23135;51.078;12.108;2022-12-18T16:20:29;43.05;;;18.83;;
37241;SDS011;23135;51.078;12.108;2022-12-18T16:22:54;35.00;;;13.95;;
37241;SDS011;23135;51.078;12.108;2022-12-18T16:25:21;39.67;;;20.23;;
37241;SDS011;23135;51.078;12.108;2022-12-18T16:27:48;32.35;;;14.95;;